Time;durP1;ratioP1;P1;durP2;ratioP2;P2;SDS_P1;SDS_P2;PMS_P1;PMS_P2;Temp;Humidity;BMP_temperature;BMP_pressure;BME280_temperature;BME280_humidity;BME280_pressure;Samples;Min_cycle;Max_cycle;Signal;HPM_P1;HPM_P2
2023/11/25 00:01:43;;;;;;;;;;;15.60;73.40;;;;;;4181683;28;20071;-51
2023/11/25 00:04:24;;;;;;;;;;;15.60;73.30;;;;;;4186319;28;19931;-53
2023/11/25 00:07:05;;;;;;;;;;;15.70;73.10;;;;;;4187457;28;20007;-48
2023/11/25 00:09:46;;;;;;;;;;;15.70;72.90;;;;;;4187822;28;19982;-52
2023/11/25 00:12:29;;;;;;;;;;;15.70;72.80;;;;;;4187636;28;19932;-49
2023/11/25 00:15:10;;;;;;;;;;;15.70;73.00;;;;;;4187644;28;19933;-48
2023/11/25 00:17:52;;;;;;;;;;;15.80;73.10;;;;;;4186922;28;20062;-50
2023/11/25 00:20:35;;;;;;;;;;;15.80;73.10;;;;;;4187558;28;19932;-47
2023/11/25 00:23:17;;;;;;;;;;;15.80;73.30;;;;;;4184689;28;19932;-49
2023/11/25 00:25:59;;;;;;;;;;;15.80;73.40;;;;;;4185553;28;20047;-48
2023/11/25 00:28:41;;;;;;;;;;;15.80;73.50;;;;;;4187564;28;19932;-51
2023/11/25 00:31:22;;;;;;;;;;;15.80;73.50;;;;;;4186273;28;20295;-52
2023/11/25 00:34:04;;;;;;;;;;;15.90;73.40;;;;;;4185480;28;20009;-50
2023/11/25 00:36:45;;;;;;;;;;;15.90;73.20;;;;;;4187285;28;19951;-50
2023/11/25 00:39:27;;;;;;;;;;;15.90;73.10;;;;;;4175926;28;19943;-49
2023/11/25 00:42:08;;;;;;;;;;;15.90;74.20;;;;;;4189549;28;19935;-51
2023/11/25 00:44:50;;;;;;;;;;;15.90;73.50;;;;;;4176520;28;20038;-50
2023/11/25 00:47:31;;;;;;;;;;;15.90;73.40;;;;;;4173250;28;19981;-51
2023/11/25 00:50:15;;;;;;;;;;;16.00;74.10;;;;;;4189351;28;20369;-51
2023/11/25 00:52:56;;;;;;;;;;;16.00;73.10;;;;;;4176304;28;19943;-51
2023/11/25 00:55:37;;;;;;;;;;;16.00;73.00;;;;;;4174647;28;20287;-49
2023/11/25 00:58:18;;;;;;;;;;;16.00;73.40;;;;;;4178826;28;20029;-47
2023/11/25 01:01:00;;;;;;;;;;;16.00;73.30;;;;;;4185319;28;19986;-51
2023/11/25 01:03:41;;;;;;;;;;;16.10;73.10;;;;;;4187812;28;19954;-51
2023/11/25 01:06:22;;;;;;;;;;;16.00;72.40;;;;;;4188811;28;19931;-50
2023/11/25 01:09:04;;;;;;;;;;;16.10;71.80;;;;;;4173867;28;19935;-48
2023/11/25 01:11:45;;;;;;;;;;;16.00;71.90;;;;;;4190600;28;19931;-51
2023/11/25 01:14:27;;;;;;;;;;;15.90;72.20;;;;;;4177379;28;20263;-50
2023/11/25 01:17:09;;;;;;;;;;;15.90;72.20;;;;;;4173854;28;20068;-50
2023/11/25 01:19:50;;;;;;;;;;;15.80;72.30;;;;;;4189051;28;19932;-52
2023/11/25 01:22:31;;;;;;;;;;;15.80;72.70;;;;;;4181610;28;19932;-49
2023/11/25 01:25:13;;;;;;;;;;;15.80;74.10;;;;;;4188799;28;19974;-52
2023/11/25 01:27:54;;;;;;;;;;;15.80;73.30;;;;;;4188808;28;20397;-49
2023/11/25 01:30:37;;;;;;;;;;;15.80;73.40;;;;;;4181692;28;20067;-47
2023/11/25 01:33:19;;;;;;;;;;;15.80;73.30;;;;;;4180484;28;19935;-47
2023/11/25 01:36:01;;;;;;;;;;;15.80;73.50;;;;;;4199492;28;20590;-53
2023/11/25 01:38:42;;;;;;;;;;;15.80;73.90;;;;;;4188207;28;20489;-52
2023/11/25 01:41:23;;;;;;;;;;;15.80;73.70;;;;;;4188505;28;19931;-52
2023/11/25 01:44:04;;;;;;;;;;;15.90;73.60;;;;;;4186194;28;20022;-48
2023/11/25 01:46:44;;;;;;;;;;;15.90;73.10;;;;;;4186697;28;19974;-49
2023/11/25 01:49:27;;;;;;;;;;;15.90;72.80;;;;;;4185522;28;20271;-53
2023/11/25 01:52:09;;;;;;;;;;;15.80;73.00;;;;;;4189354;28;19936;-49
2023/11/25 01:54:51;;;;;;;;;;;15.80;73.10;;;;;;4189389;28;19935;-50
2023/11/25 01:57:32;;;;;;;;;;;15.80;73.10;;;;;;4175170;28;19932;-50
2023/11/25 02:00:14;;;;;;;;;;;15.70;73.20;;;;;;4171172;28;19950;-50
2023/11/25 02:02:57;;;;;;;;;;;15.70;73.50;;;;;;4199933;28;19951;-51
2023/11/25 02:05:39;;;;;;;;;;;15.70;73.80;;;;;;4175904;28;19931;-52
2023/11/25 02:08:20;;;;;;;;;;;15.70;73.90;;;;;;4174798;28;20398;-49
2023/11/25 02:11:01;;;;;;;;;;;15.70;73.90;;;;;;4185805;28;20074;-50
2023/11/25 02:13:43;;;;;;;;;;;15.70;74.00;;;;;;4189049;28;19931;-50
2023/11/25 02:16:24;;;;;;;;;;;15.60;74.20;;;;;;4184369;28;19943;-49
2023/11/25 02:19:07;;;;;;;;;;;15.60;74.70;;;;;;4186582;28;20501;-48
2023/11/25 02:21:49;;;;;;;;;;;15.60;73.90;;;;;;4183045;28;20017;-49
2023/11/25 02:24:32;;;;;;;;;;;15.50;72.70;;;;;;4173332;28;19936;-48
2023/11/25 02:27:13;;;;;;;;;;;15.50;72.40;;;;;;4176863;28;19978;-49
2023/11/25 02:29:55;;;;;;;;;;;15.50;72.30;;;;;;4180447;28;20466;-48
2023/11/25 02:32:37;;;;;;;;;;;15.40;73.40;;;;;;4176067;28;20010;-48
2023/11/25 02:35:20;;;;;;;;;;;15.40;74.00;;;;;;4188070;28;19971;-48
2023/11/25 02:38:01;;;;;;;;;;;15.50;74.00;;;;;;4176711;28;20001;-50
2023/11/25 02:40:44;;;;;;;;;;;15.60;74.00;;;;;;4156564;28;19987;-52
2023/11/25 02:43:26;;;;;;;;;;;15.70;73.90;;;;;;4165453;28;19936;-50
2023/11/25 02:46:06;;;;;;;;;;;15.80;74.10;;;;;;4156833;28;19937;-50
2023/11/25 02:48:47;;;;;;;;;;;15.80;74.00;;;;;;4187567;28;20399;-49
2023/11/25 02:51:28;;;;;;;;;;;15.90;73.90;;;;;;4182053;28;19953;-50
2023/11/25 02:54:09;;;;;;;;;;;16.00;74.70;;;;;;4172324;28;20433;-48
2023/11/25 02:56:51;;;;;;;;;;;15.90;74.00;;;;;;4171060;28;19931;-49
2023/11/25 02:59:32;;;;;;;;;;;15.90;72.70;;;;;;4171683;28;19935;-48
2023/11/25 03:02:14;;;;;;;;;;;15.90;74.00;;;;;;4168413;28;19944;-49
2023/11/25 03:04:55;;;;;;;;;;;16.00;73.50;;;;;;4180637;28;19935;-49
2023/11/25 03:07:36;;;;;;;;;;;16.00;73.60;;;;;;4155938;28;20694;-48
2023/11/25 03:10:17;;;;;;;;;;;15.90;74.70;;;;;;4166514;28;19931;-48
2023/11/25 03:13:00;;;;;;;;;;;16.00;74.20;;;;;;4177603;28;19936;-49
2023/11/25 03:15:41;;;;;;;;;;;16.10;74.30;;;;;;4173134;28;19931;-49
2023/11/25 03:18:21;;;;;;;;;;;16.10;74.10;;;;;;4171379;28;19932;-49
2023/11/25 03:21:03;;;;;;;;;;;16.10;74.00;;;;;;4172771;28;19932;-49
2023/11/25 03:23:44;;;;;;;;;;;16.10;74.10;;;;;;4169359;28;20071;-50
2023/11/25 03:26:24;;;;;;;;;;;16.10;74.80;;;;;;4166452;28;19979;-49
2023/11/25 03:29:07;;;;;;;;;;;16.20;73.50;;;;;;4177623;28;19931;-52
2023/11/25 03:31:48;;;;;;;;;;;16.20;73.20;;;;;;4183108;28;20264;-50
2023/11/25 03:34:29;;;;;;;;;;;16.20;74.30;;;;;;4187707;28;19950;-51
2023/11/25 03:37:09;;;;;;;;;;;16.10;73.40;;;;;;4186472;28;20330;-54
2023/11/25 03:39:51;;;;;;;;;;;16.20;73.70;;;;;;4186261;28;19934;-52
2023/11/25 03:42:32;;;;;;;;;;;16.10;73.70;;;;;;4186328;28;19936;-52
2023/11/25 03:45:14;;;;;;;;;;;16.10;73.70;;;;;;4176829;28;19931;-50
2023/11/25 03:47:56;;;;;;;;;;;16.20;73.80;;;;;;4184196;28;20669;-51
2023/11/25 03:50:37;;;;;;;;;;;16.20;74.10;;;;;;4165896;28;20390;-49
2023/11/25 03:53:19;;;;;;;;;;;16.20;74.40;;;;;;4143318;28;19952;-52
2023/11/25 03:56:00;;;;;;;;;;;16.20;74.10;;;;;;4169087;28;19936;-50
2023/11/25 03:58:41;;;;;;;;;;;16.20;74.00;;;;;;4175689;28;19935;-48
2023/11/25 04:01:23;;;;;;;;;;;16.20;73.80;;;;;;4188207;28;20823;-51
2023/11/25 04:04:04;;;;;;;;;;;16.30;74.00;;;;;;4187488;28;19963;-50
2023/11/25 04:06:45;;;;;;;;;;;16.20;74.10;;;;;;4187570;28;19936;-49
2023/11/25 04:09:26;;;;;;;;;;;16.20;75.10;;;;;;4179864;28;20395;-48
2023/11/25 04:12:07;;;;;;;;;;;16.20;74.20;;;;;;4170747;28;19948;-52
2023/11/25 04:14:47;;;;;;;;;;;16.30;74.10;;;;;;4186219;28;20344;-48
2023/11/25 04:17:30;;;;;;;;;;;16.30;74.20;;;;;;4182132;28;19931;-54
2023/11/25 04:20:13;;;;;;;;;;;16.30;74.20;;;;;;4190938;28;19993;-48
2023/11/25 04:22:55;;;;;;;;;;;16.20;74.50;;;;;;4190476;28;19939;-48
2023/11/25 04:25:36;;;;;;;;;;;16.20;74.60;;;;;;4174822;28;19935;-49
2023/11/25 04:28:17;;;;;;;;;;;16.20;74.60;;;;;;4190345;28;20010;-48
2023/11/25 04:30:58;;;;;;;;;;;16.20;74.90;;;;;;4189532;28;19931;-51
2023/11/25 04:33:40;;;;;;;;;;;16.10;75.00;;;;;;4188050;28;19931;-48
2023/11/25 04:36:21;;;;;;;;;;;16.10;75.40;;;;;;4183167;28;20062;-48
2023/11/25 04:39:03;;;;;;;;;;;16.10;75.90;;;;;;4190490;28;20017;-49
2023/11/25 04:41:45;;;;;;;;;;;16.10;75.90;;;;;;4175747;28;19931;-52
2023/11/25 04:44:26;;;;;;;;;;;16.20;75.60;;;;;;4173232;28;19936;-50
2023/11/25 04:47:07;;;;;;;;;;;16.20;75.50;;;;;;4177752;28;19931;-50
2023/11/25 04:49:49;;;;;;;;;;;16.20;75.50;;;;;;4188996;28;19934;-50
2023/11/25 04:52:29;;;;;;;;;;;16.20;75.40;;;;;;4186463;28;19947;-50
2023/11/25 04:55:11;;;;;;;;;;;16.20;75.20;;;;;;4173880;28;20414;-52
2023/11/25 04:57:52;;;;;;;;;;;16.30;75.80;;;;;;4160131;28;19936;-50
2023/11/25 05:00:32;;;;;;;;;;;16.30;74.90;;;;;;4172014;28;19947;-49
2023/11/25 05:03:13;;;;;;;;;;;16.20;74.60;;;;;;4160504;28;19935;-52
2023/11/25 05:05:55;;;;;;;;;;;16.20;75.00;;;;;;4174284;28;19936;-49
2023/11/25 05:08:36;;;;;;;;;;;16.20;73.00;;;;;;4190411;28;20017;-50
2023/11/25 05:11:16;;;;;;;;;;;16.20;73.10;;;;;;4190392;28;20310;-49
2023/11/25 05:13:57;;;;;;;;;;;16.20;73.70;;;;;;4175390;28;19936;-49
2023/11/25 05:16:38;;;;;;;;;;;16.10;73.90;;;;;;4179189;28;20394;-51
2023/11/25 05:19:19;;;;;;;;;;;16.10;74.10;;;;;;4190122;28;20379;-48
2023/11/25 05:22:00;;;;;;;;;;;16.10;74.40;;;;;;4182308;28;19981;-49
2023/11/25 05:24:41;;;;;;;;;;;16.10;74.30;;;;;;4173567;28;19932;-48
2023/11/25 05:27:23;;;;;;;;;;;16.10;74.60;;;;;;4172357;28;19936;-50
2023/11/25 05:30:05;;;;;;;;;;;16.10;74.70;;;;;;4187526;28;20382;-49
2023/11/25 05:32:46;;;;;;;;;;;16.10;74.70;;;;;;4188499;28;19931;-51
2023/11/25 05:35:26;;;;;;;;;;;16.20;74.60;;;;;;4185523;28;19935;-52
2023/11/25 05:38:08;;;;;;;;;;;16.20;74.50;;;;;;4180612;28;19931;-48
2023/11/25 05:40:50;;;;;;;;;;;16.20;74.50;;;;;;4170923;28;19982;-51
2023/11/25 05:43:32;;;;;;;;;;;16.10;74.70;;;;;;4156398;28;20063;-53
2023/11/25 05:46:20;;;;;;;;;;;16.10;75.00;;;;;;4157862;28;19932;-53
2023/11/25 05:49:04;;;;;;;;;;;16.10;76.00;;;;;;4167652;28;19978;-52
2023/11/25 05:51:45;;;;;;;;;;;16.10;75.20;;;;;;4173151;28;20062;-49
2023/11/25 05:54:27;;;;;;;;;;;16.00;75.50;;;;;;4176353;28;19932;-50
2023/11/25 05:57:08;;;;;;;;;;;16.00;75.80;;;;;;4172562;28;19959;-51
2023/11/25 05:59:49;;;;;;;;;;;15.90;76.00;;;;;;4188017;28;20329;-50
2023/11/25 06:02:29;;;;;;;;;;;15.90;76.00;;;;;;4174354;28;19936;-51
2023/11/25 06:05:10;;;;;;;;;;;15.80;76.00;;;;;;4185484;28;19987;-49
2023/11/25 06:07:51;;;;;;;;;;;15.90;76.30;;;;;;4177500;28;19986;-50
2023/11/25 06:10:33;;;;;;;;;;;15.90;76.20;;;;;;4189365;28;20035;-48
2023/11/25 06:13:13;;;;;;;;;;;16.00;76.10;;;;;;4189359;28;19936;-48
2023/11/25 06:15:54;;;;;;;;;;;16.10;76.00;;;;;;4172927;28;19931;-51
2023/11/25 06:18:35;;;;;;;;;;;16.10;76.50;;;;;;4158296;28;19971;-50
2023/11/25 06:21:16;;;;;;;;;;;16.10;73.50;;;;;;4186351;28;20493;-52
2023/11/25 06:23:57;;;;;;;;;;;16.10;74.20;;;;;;4187286;28;19931;-49
2023/11/25 06:26:39;;;;;;;;;;;16.00;73.40;;;;;;4173455;28;19932;-49
2023/11/25 06:29:20;;;;;;;;;;;15.80;73.70;;;;;;4185022;28;19936;-49
2023/11/25 06:32:00;;;;;;;;;;;15.80;75.00;;;;;;4188642;28;19951;-48
2023/11/25 06:34:41;;;;;;;;;;;15.70;74.10;;;;;;4188389;28;19935;-53
2023/11/25 06:37:22;;;;;;;;;;;15.70;75.10;;;;;;4187210;28;20065;-50
2023/11/25 06:40:03;;;;;;;;;;;15.80;75.30;;;;;;4188744;28;20688;-53
2023/11/25 06:42:45;;;;;;;;;;;15.80;74.40;;;;;;4166294;28;19935;-51
2023/11/25 06:45:26;;;;;;;;;;;15.80;73.70;;;;;;4170939;28;20065;-50
2023/11/25 06:48:07;;;;;;;;;;;15.90;72.70;;;;;;4186937;28;19977;-52
2023/11/25 06:50:48;;;;;;;;;;;16.00;70.00;;;;;;4188656;28;19930;-52
2023/11/25 06:53:29;;;;;;;;;;;16.00;72.00;;;;;;4188024;28;19933;-52
2023/11/25 06:56:10;;;;;;;;;;;16.00;71.40;;;;;;4187680;28;20019;-53
2023/11/25 06:58:52;;;;;;;;;;;16.00;71.20;;;;;;4188158;28;19967;-56
2023/11/25 07:01:34;;;;;;;;;;;15.90;71.90;;;;;;4188216;28;19931;-50
2023/11/25 07:04:15;;;;;;;;;;;15.90;72.40;;;;;;4188320;28;20097;-49
2023/11/25 07:06:55;;;;;;;;;;;15.90;73.10;;;;;;4187553;28;19936;-50
2023/11/25 07:09:36;;;;;;;;;;;15.90;74.10;;;;;;4169133;28;19932;-52
2023/11/25 07:12:18;;;;;;;;;;;16.00;73.60;;;;;;4165319;28;20610;-49
2023/11/25 07:14:59;;;;;;;;;;;16.00;73.80;;;;;;4185467;28;20395;-47
2023/11/25 07:17:40;;;;;;;;;;;16.00;74.00;;;;;;4166278;28;20271;-48
2023/11/25 07:20:21;;;;;;;;;;;16.00;74.00;;;;;;4164787;28;20029;-48
2023/11/25 07:23:02;;;;;;;;;;;16.00;74.10;;;;;;4156063;28;19979;-48
2023/11/25 07:25:45;;;;;;;;;;;15.90;75.20;;;;;;4154689;28;19932;-49
2023/11/25 07:28:25;;;;;;;;;;;15.90;74.80;;;;;;4180096;28;19984;-48
2023/11/25 07:31:09;;;;;;;;;;;15.90;74.90;;;;;;4177674;28;19931;-50
2023/11/25 07:33:50;;;;;;;;;;;16.00;75.70;;;;;;4188356;28;19939;-48
2023/11/25 07:36:32;;;;;;;;;;;16.00;74.70;;;;;;4187947;28;19932;-48
2023/11/25 07:39:15;;;;;;;;;;;16.00;74.90;;;;;;4187546;28;19947;-54
2023/11/25 07:41:57;;;;;;;;;;;16.10;75.60;;;;;;4177944;28;19931;-51
2023/11/25 07:44:38;;;;;;;;;;;16.10;74.50;;;;;;4185014;28;20299;-53
2023/11/25 07:47:21;;;;;;;;;;;16.10;74.50;;;;;;4183605;28;19930;-52
2023/11/25 07:50:03;;;;;;;;;;;16.20;74.50;;;;;;4186298;28;19932;-53
2023/11/25 07:52:44;;;;;;;;;;;16.20;74.70;;;;;;4171005;28;19932;-53
2023/11/25 07:55:25;;;;;;;;;;;16.20;74.60;;;;;;4187772;28;19936;-48
2023/11/25 07:58:06;;;;;;;;;;;16.20;74.00;;;;;;4185107;28;19935;-50
2023/11/25 08:00:46;;;;;;;;;;;16.20;74.10;;;;;;4172456;28;19932;-52
2023/11/25 08:03:29;;;;;;;;;;;16.20;74.40;;;;;;4181056;28;19973;-51
2023/11/25 08:06:10;;;;;;;;;;;16.10;75.70;;;;;;4184909;28;20054;-52
2023/11/25 08:08:50;;;;;;;;;;;16.20;75.20;;;;;;4188182;28;19931;-49
2023/11/25 08:11:32;;;;;;;;;;;16.20;75.30;;;;;;4170349;28;19981;-51
2023/11/25 08:14:13;;;;;;;;;;;16.20;75.20;;;;;;4162747;28;20296;-48
2023/11/25 08:16:54;;;;;;;;;;;16.20;75.00;;;;;;4179085;28;19999;-51
2023/11/25 08:19:36;;;;;;;;;;;16.20;75.00;;;;;;4164965;28;20301;-52
2023/11/25 08:22:17;;;;;;;;;;;16.20;75.20;;;;;;4170560;28;19935;-48
2023/11/25 08:25:00;;;;;;;;;;;16.20;75.20;;;;;;4185788;28;20409;-52
2023/11/25 08:27:42;;;;;;;;;;;16.20;75.20;;;;;;4187388;28;20037;-53
2023/11/25 08:30:23;;;;;;;;;;;16.20;75.20;;;;;;4185044;28;19973;-49
2023/11/25 08:33:04;;;;;;;;;;;16.20;75.30;;;;;;4186652;28;19931;-51
2023/11/25 08:35:46;;;;;;;;;;;16.20;75.20;;;;;;4170272;28;19935;-51
2023/11/25 08:38:27;;;;;;;;;;;16.20;74.90;;;;;;4185260;28;19930;-52
2023/11/25 08:41:08;;;;;;;;;;;16.20;73.80;;;;;;4185842;28;20452;-50
2023/11/25 08:43:48;;;;;;;;;;;16.10;73.10;;;;;;4187234;28;19985;-53
2023/11/25 08:46:29;;;;;;;;;;;16.10;73.00;;;;;;4170567;28;19973;-52
2023/11/25 08:49:11;;;;;;;;;;;16.00;72.90;;;;;;4177012;28;19943;-48
2023/11/25 08:51:53;;;;;;;;;;;15.90;72.90;;;;;;4176875;28;20276;-51
2023/11/25 08:54:36;;;;;;;;;;;15.80;73.20;;;;;;4187034;28;19930;-49
2023/11/25 08:57:17;;;;;;;;;;;15.80;73.50;;;;;;4187135;28;19947;-51
2023/11/25 08:59:58;;;;;;;;;;;15.80;73.60;;;;;;4186719;28;20390;-51
2023/11/25 09:02:40;;;;;;;;;;;15.70;74.30;;;;;;4190110;28;20449;-53
2023/11/25 09:05:22;;;;;;;;;;;15.70;73.50;;;;;;4183701;28;19936;-51
2023/11/25 09:08:08;;;;;;;;;;;15.60;73.30;;;;;;4189452;28;19931;-53
2023/11/25 09:10:49;;;;;;;;;;;15.60;73.40;;;;;;4188634;28;19935;-52
2023/11/25 09:13:30;;;;;;;;;;;15.60;73.10;;;;;;4185270;28;19947;-53
2023/11/25 09:16:13;;;;;;;;;;;15.70;72.90;;;;;;4175063;28;19932;-49
2023/11/25 09:18:54;;;;;;;;;;;15.80;72.70;;;;;;4181747;28;19936;-54
2023/11/25 09:21:37;;;;;;;;;;;16.00;72.10;;;;;;4174424;28;19932;-53
2023/11/25 09:24:19;;;;;;;;;;;16.40;71.10;;;;;;4172813;28;20066;-50
2023/11/25 09:27:00;;;;;;;;;;;16.80;69.00;;;;;;4157686;28;19947;-50
2023/11/25 09:29:42;;;;;;;;;;;17.20;66.50;;;;;;4162460;28;19935;-54
2023/11/25 09:32:24;;;;;;;;;;;17.60;65.50;;;;;;4175665;28;20039;-53
2023/11/25 09:35:06;;;;;;;;;;;18.00;64.10;;;;;;4189418;28;19935;-51
2023/11/25 09:37:48;;;;;;;;;;;18.40;62.90;;;;;;4182641;28;20058;-53
2023/11/25 09:40:30;;;;;;;;;;;18.70;61.80;;;;;;4156238;28;19932;-55
2023/11/25 09:43:12;;;;;;;;;;;19.00;60.70;;;;;;4172954;28;19985;-55
2023/11/25 09:45:53;;;;;;;;;;;19.20;59.70;;;;;;4181132;28;19935;-53
2023/11/25 09:48:35;;;;;;;;;;;19.40;59.00;;;;;;4189764;28;19939;-53
2023/11/25 09:51:19;;;;;;;;;;;19.50;58.50;;;;;;4179624;28;19935;-54
2023/11/25 09:54:04;;;;;;;;;;;19.50;58.80;;;;;;4177683;28;19932;-52
2023/11/25 09:56:47;;;;;;;;;;;19.50;58.00;;;;;;4172288;28;19936;-53
2023/11/25 09:59:29;;;;;;;;;;;19.40;58.90;;;;;;4172852;28;19935;-51
2023/11/25 10:02:10;;;;;;;;;;;19.30;58.50;;;;;;4186142;28;19935;-54
2023/11/25 10:04:54;;;;;;;;;;;19.20;59.50;;;;;;4188406;28;19997;-56
2023/11/25 10:07:34;;;;;;;;;;;19.00;59.20;;;;;;4189432;28;19935;-52
2023/11/25 10:10:21;;;;;;;;;;;18.90;58.50;;;;;;4188703;28;19969;-51
2023/11/25 10:13:04;;;;;;;;;;;18.90;59.70;;;;;;4177813;28;19932;-53
2023/11/25 10:15:47;;;;;;;;;;;18.90;59.60;;;;;;4187837;28;19932;-55
2023/11/25 10:18:29;;;;;;;;;;;18.90;59.90;;;;;;4182648;28;19936;-52
2023/11/25 10:21:10;;;;;;;;;;;19.00;59.30;;;;;;4177233;28;19931;-52
2023/11/25 10:23:51;;;;;;;;;;;19.00;58.10;;;;;;4183268;28;19946;-50
2023/11/25 10:26:32;;;;;;;;;;;19.10;55.80;;;;;;4189336;28;20360;-48
2023/11/25 10:29:15;;;;;;;;;;;19.20;57.60;;;;;;4188643;28;19935;-51
2023/11/25 10:31:57;;;;;;;;;;;19.20;58.00;;;;;;4162089;28;19936;-49
2023/11/25 10:34:38;;;;;;;;;;;19.20;57.90;;;;;;4168086;28;19952;-52
2023/11/25 10:37:19;;;;;;;;;;;19.20;57.80;;;;;;4157190;28;19991;-49
2023/11/25 10:40:02;;;;;;;;;;;19.20;58.20;;;;;;4124433;28;20345;-54
2023/11/25 10:42:45;;;;;;;;;;;19.20;57.90;;;;;;4181905;28;19950;-52
2023/11/25 10:45:28;;;;;;;;;;;19.20;54.90;;;;;;4187026;28;20016;-52
2023/11/25 10:48:10;;;;;;;;;;;19.20;56.00;;;;;;4186916;28;19981;-51
2023/11/25 10:50:50;;;;;;;;;;;19.20;55.80;;;;;;4174152;28;19935;-49
2023/11/25 10:53:31;;;;;;;;;;;19.20;55.40;;;;;;4176535;28;20329;-51
2023/11/25 10:56:14;;;;;;;;;;;19.20;57.30;;;;;;4182831;28;19939;-51
2023/11/25 10:58:56;;;;;;;;;;;19.30;57.40;;;;;;4188248;28;19931;-54
2023/11/25 11:01:40;;;;;;;;;;;19.30;56.60;;;;;;4173197;28;20058;-49
2023/11/25 11:04:24;;;;;;;;;;;19.30;56.50;;;;;;4173517;28;19935;-54
2023/11/25 11:07:06;;;;;;;;;;;19.30;56.80;;;;;;4180521;28;19936;-49
2023/11/25 11:09:50;;;;;;;;;;;19.20;56.90;;;;;;4181726;28;20279;-52
2023/11/25 11:12:34;;;;;;;;;;;19.20;58.00;;;;;;4166209;28;20007;-49
2023/11/25 11:15:16;;;;;;;;;;;19.20;58.50;;;;;;4186774;28;20025;-49
2023/11/25 11:18:06;;;;;;;;;;;19.20;58.50;;;;;;4188159;28;19947;-51
2023/11/25 11:20:49;;;;;;;;;;;19.20;59.50;;;;;;4185837;28;19932;-48
2023/11/25 11:23:36;;;;;;;;;;;19.30;57.90;;;;;;4186481;28;19936;-49
2023/11/25 11:26:27;;;;;;;;;;;19.20;57.40;;;;;;4172775;28;20002;-49
2023/11/25 11:29:13;;;;;;;;;;;19.20;56.60;;;;;;4182397;28;20291;-51
2023/11/25 11:31:58;;;;;;;;;;;19.20;58.00;;;;;;4178144;28;20306;-50
2023/11/25 11:34:42;;;;;;;;;;;19.10;56.90;;;;;;4187815;28;19970;-51
2023/11/25 11:37:22;;;;;;;;;;;19.00;56.80;;;;;;4175909;28;20522;-56
2023/11/25 11:40:04;;;;;;;;;;;19.00;56.90;;;;;;4159021;28;19936;-55
2023/11/25 11:42:47;;;;;;;;;;;19.00;56.50;;;;;;4179473;28;20074;-49
2023/11/25 11:45:27;;;;;;;;;;;19.00;56.40;;;;;;4184739;27;19932;-52
2023/11/25 11:48:13;;;;;;;;;;;19.00;57.40;;;;;;4171398;28;19935;-54
2023/11/25 11:50:56;;;;;;;;;;;19.00;57.90;;;;;;4170790;28;20013;-49
2023/11/25 11:53:37;;;;;;;;;;;19.00;58.40;;;;;;4181890;28;19935;-51
2023/11/25 11:56:17;;;;;;;;;;;19.00;59.30;;;;;;4179123;28;20303;-51
2023/11/25 11:59:03;;;;;;;;;;;19.00;60.20;;;;;;4172702;28;20370;-50
2023/11/25 12:01:44;;;;;;;;;;;19.00;61.50;;;;;;4170125;28;20030;-49
2023/11/25 12:04:24;;;;;;;;;;;18.90;61.90;;;;;;4170708;28;19936;-53
2023/11/25 12:07:06;;;;;;;;;;;18.80;63.00;;;;;;4170898;28;19931;-51
2023/11/25 12:09:47;;;;;;;;;;;18.90;63.40;;;;;;4170747;28;19988;-54
2023/11/25 12:12:28;;;;;;;;;;;19.00;64.70;;;;;;4187791;28;20382;-49
2023/11/25 12:15:09;;;;;;;;;;;19.00;64.00;;;;;;4170729;28;19936;-51
2023/11/25 12:17:52;;;;;;;;;;;19.10;63.80;;;;;;4171866;28;19951;-52
2023/11/25 12:20:33;;;;;;;;;;;19.20;65.40;;;;;;4187670;28;19931;-51
2023/11/25 12:23:17;;;;;;;;;;;19.30;65.00;;;;;;4186792;28;20058;-51
2023/11/25 12:25:58;;;;;;;;;;;19.30;65.20;;;;;;4187470;28;19946;-52
2023/11/25 12:28:43;;;;;;;;;;;19.30;64.20;;;;;;4186645;28;19974;-50
2023/11/25 12:31:24;;;;;;;;;;;19.40;64.70;;;;;;4171680;28;19976;-50
2023/11/25 12:34:05;;;;;;;;;;;19.40;64.80;;;;;;4174234;28;20709;-51
2023/11/25 12:36:46;;;;;;;;;;;19.50;64.90;;;;;;4175823;28;20295;-50
2023/11/25 12:39:28;;;;;;;;;;;19.50;64.90;;;;;;4171284;28;20097;-52
2023/11/25 12:42:10;;;;;;;;;;;19.60;65.30;;;;;;4172305;28;20061;-50
2023/11/25 12:44:51;;;;;;;;;;;19.60;65.40;;;;;;4157136;28;19995;-51
2023/11/25 12:47:32;;;;;;;;;;;19.60;65.60;;;;;;4173513;28;19932;-52
2023/11/25 12:50:12;;;;;;;;;;;19.50;65.50;;;;;;4185888;28;19935;-49
2023/11/25 12:53:08;;;;;;;;;;;19.50;65.50;;;;;;4188893;28;20655;-52
2023/11/25 12:55:50;;;;;;;;;;;19.40;65.60;;;;;;4187353;28;19959;-52
2023/11/25 12:58:31;;;;;;;;;;;19.30;66.20;;;;;;4180921;28;19935;-51
2023/11/25 13:01:12;;;;;;;;;;;19.10;65.90;;;;;;4174696;28;20097;-49
2023/11/25 13:03:53;;;;;;;;;;;19.10;65.90;;;;;;4173567;28;19932;-50
2023/11/25 13:06:45;;;;;;;;;;;19.00;65.60;;;;;;4189337;28;19959;-52
2023/11/25 13:09:27;;;;;;;;;;;19.00;65.80;;;;;;4182463;28;19939;-49
2023/11/25 13:12:15;;;;;;;;;;;19.10;65.50;;;;;;4188480;28;19935;-51
2023/11/25 13:14:56;;;;;;;;;;;19.10;65.60;;;;;;4172643;28;20560;-51
2023/11/25 13:17:37;;;;;;;;;;;19.10;65.70;;;;;;4183768;28;19951;-51
2023/11/25 13:20:20;;;;;;;;;;;19.10;65.50;;;;;;4171904;28;19931;-48
2023/11/25 13:23:01;;;;;;;;;;;19.10;65.20;;;;;;4158186;28;19932;-50
2023/11/25 13:25:42;;;;;;;;;;;19.10;65.10;;;;;;4189218;28;19983;-52
2023/11/25 13:28:25;;;;;;;;;;;19.10;65.30;;;;;;4187759;28;20069;-54
2023/11/25 13:31:06;;;;;;;;;;;19.10;65.10;;;;;;4187054;28;20267;-53
2023/11/25 13:33:47;;;;;;;;;;;19.10;65.00;;;;;;4189915;28;20271;-50
2023/11/25 13:36:27;;;;;;;;;;;19.10;64.80;;;;;;4174738;28;20070;-51
2023/11/25 13:39:13;;;;;;;;;;;19.10;65.00;;;;;;4189113;28;20017;-51
2023/11/25 13:41:54;;;;;;;;;;;19.00;64.90;;;;;;4172694;28;20022;-53
2023/11/25 13:44:36;;;;;;;;;;;19.00;65.10;;;;;;4174981;28;19967;-50
2023/11/25 13:47:18;;;;;;;;;;;18.80;65.30;;;;;;4171117;28;19932;-52
2023/11/25 13:49:59;;;;;;;;;;;18.80;65.90;;;;;;4173272;28;20896;-50
2023/11/25 13:52:40;;;;;;;;;;;18.80;66.00;;;;;;4174727;28;19947;-51
2023/11/25 13:55:21;;;;;;;;;;;18.80;66.90;;;;;;4188007;28;19931;-53
2023/11/25 13:58:03;;;;;;;;;;;18.80;65.90;;;;;;4174059;28;20398;-50
2023/11/25 14:00:46;;;;;;;;;;;18.90;65.80;;;;;;4178218;28;19931;-53
2023/11/25 14:03:27;;;;;;;;;;;18.90;65.50;;;;;;4174583;28;20364;-48
2023/11/25 14:06:08;;;;;;;;;;;18.90;65.50;;;;;;4184211;28;19932;-48
2023/11/25 14:08:48;;;;;;;;;;;18.90;65.60;;;;;;4181284;28;19950;-52
2023/11/25 14:11:31;;;;;;;;;;;18.90;65.70;;;;;;4186821;28;19935;-49
2023/11/25 14:14:11;;;;;;;;;;;18.90;65.60;;;;;;4184569;28;19958;-52
2023/11/25 14:16:55;;;;;;;;;;;18.90;65.80;;;;;;4176008;28;20074;-52
2023/11/25 14:19:36;;;;;;;;;;;18.90;65.80;;;;;;4177597;28;20062;-51
2023/11/25 14:22:18;;;;;;;;;;;18.80;66.20;;;;;;4172958;28;19932;-49
2023/11/25 14:25:00;;;;;;;;;;;18.80;64.60;;;;;;4172855;28;20009;-53
2023/11/25 14:27:41;;;;;;;;;;;18.80;64.00;;;;;;4171768;28;19931;-47
2023/11/25 14:30:22;;;;;;;;;;;18.80;64.80;;;;;;4155521;28;19936;-49
2023/11/25 14:33:05;;;;;;;;;;;18.80;66.30;;;;;;4170348;28;20014;-48
2023/11/25 14:35:46;;;;;;;;;;;18.80;66.50;;;;;;4162793;28;20292;-50
2023/11/25 14:38:27;;;;;;;;;;;18.90;66.80;;;;;;4171461;28;19932;-51
2023/11/25 14:41:08;;;;;;;;;;;18.90;66.50;;;;;;4187197;28;19931;-51
2023/11/25 14:43:49;;;;;;;;;;;18.90;66.50;;;;;;4186933;28;19935;-54
2023/11/25 14:46:30;;;;;;;;;;;18.90;66.50;;;;;;4176415;28;19933;-50
2023/11/25 14:49:14;;;;;;;;;;;18.90;66.50;;;;;;4177893;28;19931;-51
2023/11/25 14:51:54;;;;;;;;;;;18.90;66.50;;;;;;4172769;28;19958;-49
2023/11/25 14:54:35;;;;;;;;;;;19.00;66.40;;;;;;4161810;28;20053;-49
2023/11/25 14:57:17;;;;;;;;;;;19.00;66.30;;;;;;4156439;28;19936;-49
2023/11/25 14:59:59;;;;;;;;;;;18.90;66.40;;;;;;4183084;28;20375;-52
2023/11/25 15:02:40;;;;;;;;;;;18.90;66.50;;;;;;4166877;28;19932;-50
2023/11/25 15:05:23;;;;;;;;;;;18.80;66.50;;;;;;4177982;28;19932;-49
2023/11/25 15:08:04;;;;;;;;;;;18.80;67.10;;;;;;4174510;28;19951;-48
2023/11/25 15:10:46;;;;;;;;;;;18.70;67.30;;;;;;4184962;28;19959;-51
2023/11/25 15:13:27;;;;;;;;;;;18.70;67.40;;;;;;4177496;28;19935;-51
2023/11/25 15:16:09;;;;;;;;;;;18.80;67.30;;;;;;4171744;28;19935;-49
2023/11/25 15:18:49;;;;;;;;;;;18.80;66.90;;;;;;4178118;28;19935;-51
2023/11/25 15:21:31;;;;;;;;;;;18.80;67.70;;;;;;4175455;28;20416;-52
2023/11/25 15:24:13;;;;;;;;;;;18.80;66.70;;;;;;4181666;28;19935;-52
2023/11/25 15:26:53;;;;;;;;;;;18.80;66.50;;;;;;4173640;28;19932;-52
2023/11/25 15:29:34;;;;;;;;;;;18.80;66.50;;;;;;4180818;28;19947;-50
2023/11/25 15:32:16;;;;;;;;;;;18.80;66.50;;;;;;4175612;28;20060;-49
2023/11/25 15:34:57;;;;;;;;;;;18.80;66.60;;;;;;4183929;28;20303;-52
2023/11/25 15:37:39;;;;;;;;;;;18.80;66.70;;;;;;4166725;28;20103;-48
2023/11/25 15:40:20;;;;;;;;;;;18.80;66.60;;;;;;4184287;28;19997;-53